Time;durP1;ratioP1;P1;durP2;ratioP2;P2;SDS_P1;SDS_P2;PMS_P1;PMS_P2;Temp;Humidity;BMP_temperature;BMP_pressure;BME280_temperature;BME280_humidity;BME280_pressure;Samples;Min_cycle;Max_cycle;Signal;HPM_P1;HPM_P2
2022/05/04 00:01:00;;;;;;;11.65;8.65;;;;;;;11.30;69.41;99796.03;5113386;28;20110;-47
2022/05/04 00:03:26;;;;;;;11.25;7.70;;;;;;;10.98;69.76;99797.69;5113020;28;20168;-46
2022/05/04 00:05:51;;;;;;;13.23;8.90;;;;;;;10.77;70.83;99812.00;5113071;28;20107;-47
2022/05/04 00:08:17;;;;;;;14.40;9.82;;;;;;;10.95;70.20;99806.09;5113206;28;20106;-49
2022/05/04 00:10:43;;;;;;;14.07;10.55;;;;;;;11.02;70.57;99808.75;5113078;28;20019;-47
2022/05/04 00:13:09;;;;;;;17.25;12.30;;;;;;;11.02;70.28;99804.25;5112822;28;20038;-46
2022/05/04 00:15:36;;;;;;;16.77;12.88;;;;;;;10.84;71.56;99810.19;5113291;28;20072;-48
2022/05/04 00:18:01;;;;;;;18.27;13.25;;;;;;;10.63;73.11;99797.88;5113135;28;20060;-46
2022/05/04 00:20:27;;;;;;;19.45;13.20;;;;;;;10.80;72.36;99800.97;5112959;28;20031;-45
2022/05/04 00:22:52;;;;;;;17.75;12.30;;;;;;;10.39;73.52;99801.09;5112373;28;20031;-47
2022/05/04 00:25:18;;;;;;;17.60;12.45;;;;;;;10.26;73.28;99800.03;5112672;28;20455;-48
2022/05/04 00:27:43;;;;;;;15.88;11.88;;;;;;;10.07;73.75;99803.41;5113230;28;20027;-48
2022/05/04 00:30:09;;;;;;;14.82;10.95;;;;;;;9.78;74.82;99800.00;5112715;28;20092;-45
2022/05/04 00:32:34;;;;;;;15.25;11.18;;;;;;;9.95;74.04;99797.84;5112800;28;20445;-47
2022/05/04 00:35:00;;;;;;;15.57;10.63;;;;;;;9.77;74.86;99798.38;5112617;28;20016;-48
2022/05/04 00:37:25;;;;;;;17.33;10.25;;;;;;;10.17;73.23;99802.03;5112590;28;20031;-48
2022/05/04 00:39:51;;;;;;;14.70;10.38;;;;;;;10.23;72.06;99795.09;5112693;28;20026;-47
2022/05/04 00:42:21;;;;;;;16.35;10.73;;;;;;;10.06;73.05;99804.44;5112634;28;20031;-47
2022/05/04 00:44:49;;;;;;;15.93;9.98;;;;;;;9.93;73.35;99792.72;5112719;28;20054;-46
2022/05/04 00:47:16;;;;;;;13.65;10.10;;;;;;;10.02;73.09;99790.72;5112623;28;20715;-46
2022/05/04 00:49:44;;;;;;;13.35;9.82;;;;;;;10.34;71.85;99788.41;5112270;28;20027;-46
2022/05/04 00:52:11;;;;;;;13.25;9.85;;;;;;;10.62;70.74;99795.41;5112509;28;20106;-48
2022/05/04 00:54:37;;;;;;;14.15;9.75;;;;;;;10.87;69.01;99799.13;5112410;28;20028;-47
2022/05/04 00:57:04;;;;;;;14.15;9.63;;;;;;;10.73;70.08;99808.13;5112569;28;20081;-49
2022/05/04 00:59:31;;;;;;;13.07;9.63;;;;;;;10.55;70.40;99817.50;5112474;28;20023;-48
2022/05/04 01:01:58;;;;;;;12.80;9.77;;;;;;;10.83;68.83;99823.69;5112029;28;20011;-45
2022/05/04 01:04:24;;;;;;;15.82;9.32;;;;;;;10.21;71.05;99814.94;5112301;28;20031;-47
2022/05/04 01:06:50;;;;;;;13.50;9.48;;;;;;;10.25;71.46;99816.97;5111997;28;20044;-45
2022/05/04 01:09:16;;;;;;;14.32;9.75;;;;;;;10.24;71.46;99818.00;5111882;28;20473;-49
2022/05/04 01:11:42;;;;;;;13.48;10.18;;;;;;;10.57;70.02;99812.00;5112119;28;20035;-47
2022/05/04 01:14:10;;;;;;;13.65;10.02;;;;;;;10.84;69.56;99809.38;5111862;28;20055;-49
2022/05/04 01:16:39;;;;;;;15.27;10.15;;;;;;;10.50;70.05;99803.97;5111944;28;20028;-47
2022/05/04 01:19:06;;;;;;;12.65;9.48;;;;;;;10.61;69.28;99812.41;5111612;28;20035;-46
2022/05/04 01:21:32;;;;;;;15.65;9.95;;;;;;;10.15;71.24;99804.06;5111525;28;20527;-49
2022/05/04 01:23:58;;;;;;;14.35;10.07;;;;;;;10.19;70.81;99807.16;5111528;28;20119;-47
2022/05/04 01:26:23;;;;;;;14.75;9.63;;;;;;;10.37;70.43;99806.59;5111726;28;20034;-49
2022/05/04 01:28:49;;;;;;;12.68;9.48;;;;;;;10.41;69.77;99802.53;5111727;28;20028;-46
2022/05/04 01:31:14;;;;;;;13.68;9.68;;;;;;;10.20;70.87;99797.31;5111246;28;20035;-47
2022/05/04 01:33:40;;;;;;;15.05;10.05;;;;;;;10.34;69.93;99791.06;5110907;28;20024;-46
2022/05/04 01:36:07;;;;;;;13.20;9.57;;;;;;;10.45;69.79;99787.81;5111474;28;20456;-46
2022/05/04 01:38:34;;;;;;;13.80;9.70;;;;;;;10.60;69.17;99789.47;5111546;28;20030;-46
2022/05/04 01:40:59;;;;;;;14.32;9.13;;;;;;;10.68;68.60;99791.94;5111635;28;20050;-47
2022/05/04 01:43:24;;;;;;;13.48;9.52;;;;;;;10.66;68.23;99788.66;5111208;28;20055;-46
2022/05/04 01:45:50;;;;;;;12.60;8.90;;;;;;;10.42;69.32;99790.88;5111468;28;20020;-47
2022/05/04 01:48:15;;;;;;;12.70;8.40;;;;;;;10.51;68.46;99807.47;5111204;28;20031;-46
2022/05/04 01:50:41;;;;;;;12.10;8.65;;;;;;;10.46;67.83;99808.06;5111199;28;20024;-47
2022/05/04 01:53:06;;;;;;;13.60;9.50;;;;;;;10.40;68.33;99813.38;5111315;28;20050;-47
2022/05/04 01:55:33;;;;;;;13.75;9.68;;;;;;;10.54;68.67;99810.53;5111247;28;20023;-46
2022/05/04 01:57:59;;;;;;;12.70;8.90;;;;;;;10.16;70.02;99812.84;5110984;28;20039;-46
2022/05/04 02:00:24;;;;;;;14.30;9.43;;;;;;;10.26;69.50;99808.00;5110855;28;20024;-46
2022/05/04 02:02:50;;;;;;;14.60;9.57;;;;;;;10.32;69.82;99806.41;5110915;28;20012;-46
2022/05/04 02:05:16;;;;;;;12.82;9.18;;;;;;;10.22;69.74;99792.63;5110863;28;20086;-46
2022/05/04 02:07:43;;;;;;;12.57;9.30;;;;;;;10.39;69.40;99793.94;5111063;28;20525;-46
2022/05/04 02:10:09;;;;;;;13.38;9.68;;;;;;;10.33;69.09;99787.56;5110995;28;20388;-46
2022/05/04 02:12:36;;;;;;;12.35;8.82;;;;;;;10.34;69.42;99791.88;5111306;28;20035;-46
2022/05/04 02:15:03;;;;;;;11.48;8.73;;;;;;;10.70;68.64;99792.53;5110971;28;20027;-46
2022/05/04 02:17:28;;;;;;;12.57;8.40;;;;;;;10.75;67.54;99803.41;5111230;28;20379;-46
2022/05/04 02:19:54;;;;;;;12.20;8.30;;;;;;;10.72;67.55;99799.31;5110874;28;20032;-46
2022/05/04 02:22:19;;;;;;;11.05;8.07;;;;;;;10.85;67.18;99800.34;5111015;28;20051;-47
2022/05/04 02:24:45;;;;;;;11.82;8.55;;;;;;;11.01;66.94;99807.13;5110945;28;20051;-45
2022/05/04 02:27:10;;;;;;;13.02;7.90;;;;;;;11.14;66.56;99797.28;5111015;28;20024;-47
2022/05/04 02:29:36;;;;;;;12.52;8.07;;;;;;;11.09;66.06;99809.59;5110867;28;20035;-46
2022/05/04 02:32:01;;;;;;;11.88;8.10;;;;;;;11.25;66.22;99813.66;5110931;28;20020;-46
2022/05/04 02:34:26;;;;;;;12.68;8.07;;;;;;;11.33;65.81;99813.47;5110764;28;20024;-46
2022/05/04 02:39:36;;;;;;;8.77;6.35;;;;;;;10.89;65.75;99798.91;5110851;28;20100;-46
2022/05/04 02:42:01;;;;;;;9.50;6.40;;;;;;;10.56;67.11;99800.50;5110784;28;20047;-45
2022/05/04 02:44:27;;;;;;;9.82;6.00;;;;;;;10.48;66.97;99803.38;5110644;28;20087;-46
2022/05/04 02:46:52;;;;;;;8.23;6.05;;;;;;;10.50;67.25;99806.63;5110799;28;20047;-45
2022/05/04 02:49:18;;;;;;;7.22;5.22;;;;;;;10.64;66.11;99807.50;5110591;28;20019;-45
2022/05/04 02:51:44;;;;;;;7.95;6.20;;;;;;;10.65;65.91;99811.78;5110574;28;20031;-46
2022/05/04 02:54:10;;;;;;;10.02;5.80;;;;;;;10.76;65.86;99815.72;5109478;28;20553;-45
2022/05/04 02:56:36;;;;;;;8.85;6.07;;;;;;;10.98;66.06;99812.84;5110459;28;20026;-46
2022/05/04 02:59:01;;;;;;;8.25;6.22;;;;;;;10.90;65.58;99811.22;5110436;28;20024;-47
2022/05/04 03:04:11;;;;;;;10.35;6.55;;;;;;;10.93;65.95;99816.94;5110499;28;20043;-45
2022/05/04 03:06:41;;;;;;;8.02;5.35;;;;;;;10.87;65.81;99822.25;5110245;28;20052;-45
2022/05/04 03:09:07;;;;;;;;;;;;;;;11.30;64.08;99822.69;5113089;28;20028;-45
2022/05/04 03:14:20;;;;;;;11.38;6.30;;;;;;;10.83;66.06;99815.69;5114120;28;20050;-47
2022/05/04 03:16:47;;;;;;;11.25;6.35;;;;;;;10.89;65.70;99823.72;5114173;28;20015;-46
2022/05/04 03:19:13;;;;;;;11.43;6.88;;;;;;;10.94;66.11;99831.88;5114537;28;20043;-48
2022/05/04 03:21:39;;;;;;;7.32;5.50;;;;;;;10.95;65.92;99828.22;5113870;28;20020;-47
2022/05/04 03:24:04;;;;;;;9.32;5.75;;;;;;;10.96;65.37;99829.84;5113943;28;20019;-47
2022/05/04 03:26:30;;;;;;;7.50;5.82;;;;;;;10.92;65.32;99825.94;5113816;28;20027;-50
2022/05/04 03:28:56;;;;;;;9.00;6.80;;;;;;;11.13;78.26;99843.56;5114129;28;20490;-45
2022/05/04 03:31:22;;;;;;;13.02;7.65;;;;;;;11.87;78.29;99844.31;5113153;28;20102;-48
2022/05/04 03:33:48;;;;;;;9.90;7.20;;;;;;;12.30;75.88;99832.31;5113222;28;20107;-45
2022/05/04 03:36:13;;;;;;;9.02;6.63;;;;;;;12.61;71.35;99844.06;5113241;28;20420;-46
2022/05/04 03:38:39;;;;;;;11.20;7.15;;;;;;;12.82;69.12;99845.56;5112998;28;20019;-44
2022/05/04 03:41:04;;;;;;;14.00;8.30;;;;;;;12.64;63.84;99774.19;5113110;28;20066;-46
2022/05/04 03:43:30;;;;;;;10.63;6.55;;;;;;;13.34;63.47;99838.19;5112851;28;20023;-50
2022/05/04 03:45:55;;;;;;;8.27;6.18;;;;;;;13.47;62.94;99831.91;5112960;28;20112;-49
2022/05/04 03:48:21;;;;;;;10.57;6.32;;;;;;;13.62;65.11;99828.91;5113392;28;20364;-49
2022/05/04 03:50:47;;;;;;;9.48;6.32;;;;;;;14.00;61.46;99850.09;5113191;28;20095;-46
2022/05/04 03:53:15;;;;;;;10.75;6.10;;;;;;;13.46;60.56;99847.16;5113470;28;20028;-46
2022/05/04 03:55:40;;;;;;;9.00;6.40;;;;;;;13.74;62.26;99853.84;5112769;28;20020;-46
2022/05/04 03:58:06;;;;;;;9.98;5.90;;;;;;;14.47;61.35;99847.66;5112878;28;20107;-46
2022/05/04 04:00:31;;;;;;;10.30;6.30;;;;;;;15.10;59.33;99850.06;5113178;28;20030;-47
2022/05/04 04:02:57;;;;;;;10.55;6.10;;;;;;;15.52;54.34;99858.88;5112922;28;20064;-46
2022/05/04 04:05:23;;;;;;;10.73;5.88;;;;;;;15.79;56.36;99856.56;5112776;28;20112;-46
2022/05/04 04:07:49;;;;;;;10.82;5.80;;;;;;;16.32;53.78;99861.94;5113457;28;20123;-46
2022/05/04 04:10:15;;;;;;;8.52;5.95;;;;;;;16.76;53.27;99864.94;5113291;28;20023;-47
2022/05/04 04:12:40;;;;;;;10.88;6.20;;;;;;;17.09;51.22;99861.50;5112695;28;20329;-47
2022/05/04 04:15:06;;;;;;;10.38;6.22;;;;;;;17.52;50.67;99869.97;5112887;28;20031;-47
2022/05/04 04:17:32;;;;;;;71.15;46.33;;;;;;;17.46;49.41;99874.47;5112729;28;20045;-48
2022/05/04 04:22:41;;;;;;;30.77;20.48;;;;;;;17.45;48.24;99875.50;5112695;28;20150;-52
2022/05/04 04:25:07;;;;;;;22.35;14.20;;;;;;;17.15;48.16;99876.66;5112389;28;20134;-47
2022/05/04 04:27:34;;;;;;;9.98;6.60;;;;;;;17.01;46.89;99878.03;5112323;28;20179;-47
2022/05/04 04:30:00;;;;;;;7.65;6.03;;;;;;;16.95;47.62;99892.44;5112453;28;20099;-47
2022/05/04 04:32:26;;;;;;;13.90;10.10;;;;;;;16.85;46.79;99874.25;5112130;28;20531;-47
2022/05/04 04:34:51;;;;;;;10.30;6.10;;;;;;;16.51;47.03;99889.44;5111556;28;20047;-50
2022/05/04 04:37:17;;;;;;;9.20;5.72;;;;;;;16.50;47.70;99879.75;5111802;28;20081;-47
2022/05/04 04:39:42;;;;;;;7.03;5.45;;;;;;;16.70;47.41;99884.72;5111638;28;20502;-47
2022/05/04 04:42:08;;;;;;;10.20;5.38;;;;;;;16.68;47.75;99868.81;5111630;28;20020;-47
2022/05/04 04:44:33;;;;;;;9.30;6.20;;;;;;;16.94;47.56;99877.34;5111605;28;20095;-48
2022/05/04 04:46:58;;;;;;;16.13;9.52;;;;;;;16.42;49.01;99870.19;5111622;28;20068;-48
2022/05/04 04:49:25;;;;;;;11.07;7.78;;;;;;;16.42;48.96;99868.31;5111174;28;20396;-48
2022/05/04 04:51:51;;;;;;;8.93;5.72;;;;;;;16.80;49.28;99871.44;5111481;28;20052;-50
2022/05/04 04:54:16;;;;;;;12.35;5.82;;;;;;;16.95;48.03;99873.63;5111065;28;20036;-49
2022/05/04 04:56:42;;;;;;;10.15;5.05;;;;;;;17.56;46.32;99863.03;5111521;28;20443;-48
2022/05/04 04:59:08;;;;;;;13.10;5.28;;;;;;;17.87;45.77;99872.38;5111409;28;20050;-50
2022/05/04 05:01:33;;;;;;;26.55;15.23;;;;;;;18.30;44.63;99864.59;5111122;28;20339;-48
2022/05/04 05:03:59;;;;;;;18.17;12.48;;;;;;;18.68;43.03;99863.66;5111653;28;20035;-49
2022/05/04 05:06:25;;;;;;;17.92;13.10;;;;;;;18.79;43.09;99861.88;5111182;28;20062;-49
2022/05/04 05:08:50;;;;;;;32.95;21.90;;;;;;;18.78;42.79;99862.13;5110922;28;20028;-48
2022/05/04 05:11:16;;;;;;;18.63;11.90;;;;;;;18.02;43.10;99863.69;5110947;28;20115;-50
2022/05/04 05:16:25;;;;;;;9.52;5.25;;;;;;;17.27;45.52;99871.22;5111262;28;20064;-51
2022/05/04 05:18:51;;;;;;;8.30;5.32;;;;;;;17.68;45.47;99865.63;5111260;28;20019;-49
2022/05/04 05:21:16;;;;;;;7.22;5.50;;;;;;;18.16;44.46;99877.59;5111459;28;20023;-48
2022/05/04 05:23:42;;;;;;;10.75;4.85;;;;;;;18.33;43.08;99856.81;5110905;28;20402;-48
2022/05/04 05:26:07;;;;;;;13.02;8.80;;;;;;;19.38;41.65;99879.13;5110777;28;20032;-48
2022/05/04 05:28:33;;;;;;;18.45;11.55;;;;;;;19.70;40.00;99881.78;5110654;28;20023;-48
2022/05/04 05:30:58;;;;;;;10.75;5.70;;;;;;;19.89;40.60;99880.28;5109828;28;20032;-48
2022/05/04 05:33:24;;;;;;;9.80;5.03;;;;;;;20.21;39.67;99884.78;5110172;28;20106;-48
2022/05/04 05:35:50;;;;;;;8.27;5.13;;;;;;;20.36;38.99;99875.94;5110852;28;20066;-48
2022/05/04 05:38:16;;;;;;;9.88;5.22;;;;;;;20.30;38.56;99883.19;5110334;28;20055;-47
2022/05/04 05:40:42;;;;;;;9.88;5.00;;;;;;;20.01;39.57;99890.91;5111013;28;20035;-49
2022/05/04 05:43:07;;;;;;;9.50;4.43;;;;;;;19.97;40.21;99897.09;5110308;28;20027;-48
2022/05/04 05:45:33;;;;;;;9.50;5.20;;;;;;;19.36;41.04;99895.56;5110789;28;20028;-48
2022/05/04 05:47:58;;;;;;;13.35;5.45;;;;;;;18.75;42.30;99899.31;5110688;28;20081;-47
2022/05/04 05:50:24;;;;;;;11.30;5.25;;;;;;;18.78;42.41;99891.78;5110577;28;20048;-49
2022/05/04 05:52:50;;;;;;;10.27;5.75;;;;;;;18.50;43.19;99886.34;5110358;28;20029;-49
2022/05/04 05:55:15;;;;;;;15.05;7.22;;;;;;;18.81;42.82;99886.75;5110661;28;20106;-48
2022/05/04 05:57:40;;;;;;;12.13;7.20;;;;;;;18.77;43.29;99885.56;5110185;28;20054;-50
2022/05/04 06:00:07;;;;;;;8.93;5.75;;;;;;;19.31;53.98;99890.94;5109436;28;20031;-48
2022/05/04 06:02:33;;;;;;;7.00;4.65;;;;;;;19.45;42.54;99888.63;5109883;28;20024;-50
2022/05/04 06:04:59;;;;;;;8.50;4.45;;;;;;;19.30;41.95;99880.41;5109105;28;20043;-49
2022/05/04 06:07:24;;;;;;;7.07;5.03;;;;;;;19.25;41.87;99883.91;5109160;28;20047;-47
2022/05/04 06:09:51;;;;;;;9.65;4.30;;;;;;;18.73;42.24;99885.28;5109576;28;20031;-48
2022/05/04 06:12:16;;;;;;;10.57;4.28;;;;;;;18.07;42.66;99890.69;5109655;28;20118;-51
2022/05/04 06:14:42;;;;;;;6.05;4.22;;;;;;;18.00;43.73;99898.13;5109322;28;20123;-50
2022/05/04 06:17:08;;;;;;;6.10;4.35;;;;;;;17.87;43.94;99893.91;5109258;28;20032;-51
2022/05/04 06:19:33;;;;;;;6.25;3.95;;;;;;;18.06;44.18;99891.75;5109549;28;20080;-49
2022/05/04 06:21:59;;;;;;;8.70;4.70;;;;;;;18.02;43.85;99892.50;5109506;28;20016;-51
2022/05/04 06:24:28;;;;;;;5.70;4.22;;;;;;;17.67;45.00;99894.41;5109701;28;20487;-52
2022/05/04 06:26:53;;;;;;;10.48;4.60;;;;;;;17.88;44.46;99884.78;5109673;28;20047;-49
2022/05/04 06:29:19;;;;;;;10.38;4.70;;;;;;;18.30;44.51;99884.25;5109393;28;20062;-49
2022/05/04 06:34:28;;;;;;;9.13;4.22;;;;;;;18.43;43.96;99895.69;5109151;28;20637;-50
2022/05/04 06:36:54;;;;;;;7.50;4.18;;;;;;;18.04;44.00;99890.38;5109333;28;20110;-48
2022/05/04 06:39:19;;;;;;;8.68;4.60;;;;;;;18.43;43.67;99891.16;5109405;28;20419;-50
2022/05/04 06:41:45;;;;;;;11.20;4.95;;;;;;;18.12;45.20;99892.63;5109210;28;20084;-48
2022/05/04 06:44:10;;;;;;;7.47;4.57;;;;;;;18.38;44.32;99885.69;5113269;28;20019;-50
2022/05/04 06:46:41;;;;;;;9.35;4.53;;;;;;;18.50;43.88;99886.34;5113046;28;20045;-48
2022/05/04 06:49:09;;;;;;;8.40;4.70;;;;;;;18.64;43.80;99894.06;5112986;28;20065;-50
2022/05/04 06:51:35;;;;;;;9.43;4.75;;;;;;;18.84;49.01;99896.19;5112929;28;20114;-51
2022/05/04 06:54:00;;;;;;;16.58;5.32;;;;;;;18.91;43.09;99897.63;5112749;28;20256;-49
2022/05/04 06:56:26;;;;;;;11.52;5.07;;;;;;;19.27;45.22;99894.44;5113369;28;20024;-47
2022/05/04 06:58:51;;;;;;;9.43;5.00;;;;;;;19.56;43.21;99888.72;5112967;28;20471;-48
2022/05/04 07:01:16;;;;;;;10.63;5.10;;;;;;;19.44;43.33;99886.19;5112955;28;20447;-47
2022/05/04 07:03:42;;;;;;;11.63;4.95;;;;;;;19.66;43.33;99886.06;5112869;28;20084;-49
2022/05/04 07:06:07;;;;;;;7.88;4.65;;;;;;;19.01;43.35;99875.31;5112834;28;20051;-48
2022/05/04 07:08:34;;;;;;;7.60;4.75;;;;;;;19.11;43.53;99872.72;5113055;28;20137;-51
2022/05/04 07:11:00;;;;;;;7.32;4.60;;;;;;;19.46;42.97;99865.97;5112431;28;20051;-47
2022/05/04 07:13:25;;;;;;;6.20;4.50;;;;;;;19.90;42.96;99876.53;5112500;28;20019;-49
2022/05/04 07:15:51;;;;;;;8.52;4.88;;;;;;;19.97;42.76;99864.69;5112835;28;20023;-49
2022/05/04 07:18:16;;;;;;;7.65;5.00;;;;;;;20.23;42.01;99863.72;5112329;28;20565;-50
2022/05/04 07:20:42;;;;;;;7.68;4.90;;;;;;;19.81;41.91;99869.19;5112451;28;20039;-49
2022/05/04 07:23:07;;;;;;;14.05;5.00;;;;;;;19.85;42.29;99863.00;5112647;28;20366;-49
2022/05/04 07:25:33;;;;;;;10.23;4.50;;;;;;;19.80;41.61;99864.84;5112436;28;20023;-50
2022/05/04 07:27:59;;;;;;;8.63;4.20;;;;;;;20.03;41.12;99866.31;5112678;28;20387;-49
2022/05/04 07:30:24;;;;;;;7.85;3.92;;;;;;;20.16;41.20;99859.63;5112289;28;20337;-47
2022/05/04 07:32:50;;;;;;;7.72;4.13;;;;;;;19.94;41.45;99873.31;5112076;28;20483;-48
2022/05/04 07:35:17;;;;;;;8.05;4.32;;;;;;;20.04;41.08;99859.84;5112832;28;20030;-48
2022/05/04 07:37:43;;;;;;;6.15;4.05;;;;;;;20.40;40.83;99868.91;5111992;28;20050;-49
2022/05/04 07:42:52;;;;;;;7.85;4.18;;;;;;;21.31;39.92;99871.25;5112417;28;20080;-49
2022/05/04 07:45:18;;;;;;;7.22;4.35;;;;;;;21.84;39.83;99867.13;5111583;28;20078;-46
2022/05/04 07:47:43;;;;;;;8.10;4.50;;;;;;;21.53;39.44;99866.34;5112161;28;20098;-51
2022/05/04 07:50:11;;;;;;;10.38;4.70;;;;;;;22.08;39.00;99873.81;5112002;28;20023;-49
2022/05/04 07:52:38;;;;;;;9.00;5.00;;;;;;;21.77;38.21;99877.41;5112283;28;20120;-49
2022/05/04 07:55:04;;;;;;;9.63;4.47;;;;;;;21.84;39.44;99885.28;5111202;28;20016;-49
2022/05/04 07:57:29;;;;;;;9.10;4.50;;;;;;;22.19;38.90;99892.47;5111891;28;20027;-53
2022/05/04 08:05:29;;;;;;;28.50;18.37;;;;;;;22.21;38.22;99893.00;5111799;28;20086;-49
2022/05/04 08:07:54;;;;;;;14.90;5.28;;;;;;;22.48;38.56;99880.16;5111707;28;20024;-50
2022/05/04 08:10:20;;;;;;;8.27;4.00;;;;;;;22.19;37.69;99888.94;5112004;28;20145;-50
2022/05/04 08:12:45;;;;;;;6.28;3.90;;;;;;;22.71;37.08;99873.25;5111400;28;20016;-47
2022/05/04 08:15:11;;;;;;;7.13;4.55;;;;;;;22.80;37.44;99877.00;5111520;28;20057;-48
2022/05/04 08:17:36;;;;;;;7.60;4.15;;;;;;;22.65;36.86;99867.84;5111533;28;20375;-49
2022/05/04 08:20:02;;;;;;;6.22;4.07;;;;;;;22.44;37.98;99872.59;5111411;28;20020;-48
2022/05/04 08:22:28;;;;;;;9.00;5.70;;;;;;;22.84;37.44;99867.19;5092864;28;20020;-47
2022/05/04 08:24:54;;;;;;;7.32;4.03;;;;;;;23.20;36.72;99872.41;5111511;28;20452;-48
2022/05/04 08:27:20;;;;;;;8.70;5.03;;;;;;;23.23;36.95;99874.56;5111307;28;20035;-47
2022/05/04 08:29:46;;;;;;;7.72;4.30;;;;;;;23.10;36.40;99873.28;5111181;28;20413;-48
2022/05/04 08:32:11;;;;;;;6.43;3.70;;;;;;;22.79;35.77;99868.06;5110458;28;20760;-47
2022/05/04 08:34:37;;;;;;;7.35;3.67;;;;;;;22.60;36.58;99884.19;5110839;28;20107;-48
2022/05/04 08:37:03;;;;;;;8.25;4.25;;;;;;;22.89;44.05;99880.75;5110832;28;20383;-50
2022/05/04 08:39:28;;;;;;;10.27;3.95;;;;;;;23.00;37.55;99882.28;5110878;28;20514;-47
2022/05/04 08:41:54;;;;;;;6.40;4.05;;;;;;;22.76;36.93;99876.75;5111237;28;20370;-49
2022/05/04 08:44:19;;;;;;;7.05;4.25;;;;;;;23.31;36.93;99876.66;5110662;28;20490;-48
2022/05/04 08:46:45;;;;;;;7.72;3.58;;;;;;;23.27;36.09;99869.38;5110706;28;20109;-50
2022/05/04 08:49:12;;;;;;;8.13;4.25;;;;;;;23.29;36.84;99870.69;5110671;28;20027;-50
2022/05/04 08:51:39;;;;;;;6.88;3.58;;;;;;;24.14;34.85;99882.88;5110787;28;20024;-49
2022/05/04 08:54:06;;;;;;;4.32;3.47;;;;;;;24.92;33.43;99867.16;5110327;28;20027;-50
2022/05/04 08:56:33;;;;;;;6.88;4.18;;;;;;;25.39;33.31;99866.44;5110861;28;20221;-48
2022/05/04 08:59:01;;;;;;;8.88;3.40;;;;;;;24.49;33.80;99859.03;5110995;28;20108;-49
2022/05/04 09:01:26;;;;;;;6.10;3.25;;;;;;;24.71;31.62;99866.66;5110317;28;20038;-48
2022/05/04 09:03:52;;;;;;;6.32;3.10;;;;;;;24.03;32.75;99859.66;5110176;28;20024;-49
2022/05/04 09:06:29;;;;;;;5.20;3.13;;;;;;;23.77;33.58;99859.09;5110014;28;20051;-47
2022/05/04 09:09:04;;;;;;;5.05;2.88;;;;;;;24.39;32.81;99860.00;5110773;28;20027;-48
2022/05/04 09:11:32;;;;;;;4.80;2.75;;;;;;;24.72;32.28;99851.13;5110354;28;20027;-51
2022/05/04 09:13:58;;;;;;;14.88;10.75;;;;;;;25.24;31.74;99865.56;5110628;28;20038;-51
2022/05/04 09:16:28;;;;;;;8.48;5.10;;;;;;;25.70;30.43;99858.50;5110347;28;20114;-50
2022/05/04 09:18:54;;;;;;;4.10;2.60;;;;;;;25.97;30.04;99851.47;5109912;28;20089;-51
2022/05/04 09:21:22;;;;;;;3.65;2.40;;;;;;;26.07;29.55;99851.28;5109910;28;20031;-48
2022/05/04 09:23:52;;;;;;;5.65;2.45;;;;;;;25.45;31.41;99851.59;5109790;28;20222;-50
2022/05/04 09:26:20;;;;;;;2.90;2.17;;;;;;;25.76;29.32;99838.22;5109762;28;20127;-49
2022/05/04 09:28:56;;;;;;;5.50;2.10;;;;;;;25.52;28.06;99841.13;5109389;28;20072;-49
2022/05/04 09:31:25;;;;;;;3.42;1.95;;;;;;;25.98;28.21;99845.72;5109475;28;20459;-50
2022/05/04 09:34:09;;;;;;;5.50;1.98;;;;;;;25.34;28.83;99838.19;5109514;28;20456;-51
2022/05/04 09:44:53;;;;;;;2.58;1.98;;;;;;;25.94;28.59;99831.88;5109137;28;20453;-52
2022/05/04 09:44:54;;;;;;;3.80;1.88;;;;;;;25.74;26.22;99818.63;5109077;28;20501;-48
2022/05/04 09:47:21;;;;;;;4.07;2.08;;;;;;;26.44;26.17;99814.72;5109423;28;20035;-51
2022/05/04 09:49:50;;;;;;;3.38;2.05;;;;;;;26.23;27.21;99819.81;5109519;28;20143;-48
2022/05/04 09:52:24;;;;;;;3.35;2.17;;;;;;;25.58;27.80;99823.56;5109500;28;20103;-51
2022/05/04 09:54:52;;;;;;;5.28;2.30;;;;;;;26.44;26.50;99808.47;5109060;28;20111;-51
2022/05/04 09:57:18;;;;;;;5.72;2.10;;;;;;;26.83;26.92;99809.78;5109248;28;20482;-52
2022/05/04 09:59:43;;;;;;;4.15;2.17;;;;;;;26.55;26.22;99806.31;5110121;28;20539;-48
2022/05/04 10:02:10;;;;;;;4.70;1.90;;;;;;;26.76;25.74;99804.72;5110681;28;20027;-50
2022/05/04 10:04:36;;;;;;;4.78;2.10;;;;;;;27.23;25.11;99799.72;5110242;28;20490;-48
2022/05/04 10:07:03;;;;;;;3.00;1.90;;;;;;;26.87;24.83;99795.19;5110282;28;20528;-48
2022/05/04 10:09:29;;;;;;;3.88;2.22;;;;;;;26.49;25.17;99802.91;5110302;28;20114;-51
2022/05/04 10:11:59;;;;;;;2.95;2.10;;;;;;;26.23;24.54;99791.75;5110368;28;20019;-49
2022/05/04 10:14:28;;;;;;;4.28;2.30;;;;;;;26.43;25.35;99795.94;5109989;28;20032;-49
2022/05/04 10:17:12;;;;;;;3.33;2.05;;;;;;;27.13;24.46;99788.25;5111328;28;20019;-50
2022/05/04 10:19:58;;;;;;;2.47;1.98;;;;;;;27.88;23.53;99786.50;5117194;28;20419;-51
2022/05/04 10:22:33;;;;;;;3.05;1.70;;;;;;;27.75;21.91;99788.22;5099254;28;20054;-51
2022/05/04 10:25:01;;;;;;;3.78;1.70;;;;;;;27.68;22.06;99783.25;5116814;28;20085;-49
2022/05/04 10:27:28;;;;;;;2.63;1.83;;;;;;;27.47;21.57;99763.88;5117062;28;20059;-50
2022/05/04 10:32:49;;;;;;;2.35;1.80;;;;;;;27.79;21.14;99777.47;5116805;28;20050;-50
2022/05/04 10:35:21;;;;;;;3.72;1.90;;;;;;;28.02;21.01;99769.97;5116781;28;20038;-49
2022/05/04 10:37:59;;;;;;;7.30;2.15;;;;;;;27.43;22.88;99778.47;5116762;28;20110;-48
2022/05/04 10:40:26;;;;;;;4.93;2.25;;;;;;;27.19;22.35;99768.72;5116258;28;20031;-49
2022/05/04 10:42:56;;;;;;;5.53;2.13;;;;;;;27.61;22.05;99760.22;5116581;28;20016;-50
2022/05/04 10:45:29;;;;;;;3.53;2.00;;;;;;;28.71;22.04;99771.13;5116937;28;20058;-49
2022/05/04 10:48:09;;;;;;;3.35;2.30;;;;;;;28.90;21.67;99770.78;5116939;28;20028;-48
2022/05/04 10:50:55;;;;;;;3.85;2.10;;;;;;;29.66;19.86;99761.81;5116954;28;20034;-49
2022/05/04 10:53:42;;;;;;;5.18;1.90;;;;;;;29.21;19.56;99759.63;5116750;28;20073;-49
2022/05/04 10:56:16;;;;;;;3.92;1.95;;;;;;;29.23;19.98;99760.09;5116175;28;20128;-48
2022/05/04 10:58:43;;;;;;;2.53;2.00;;;;;;;29.07;20.82;99758.97;5116705;28;20126;-48
2022/05/04 11:01:10;;;;;;;4.68;2.10;;;;;;;29.35;20.80;99756.66;5116715;28;20019;-48
2022/05/04 11:03:38;;;;;;;5.45;2.47;;;;;;;29.67;19.93;99749.72;5116525;28;20456;-49
2022/05/04 11:06:22;;;;;;;7.32;2.30;;;;;;;30.02;21.04;99764.06;5116311;28;20058;-49
2022/05/04 11:08:48;;;;;;;3.85;1.92;;;;;;;29.72;19.52;99745.97;5116494;28;20029;-49
2022/05/04 11:11:14;;;;;;;4.53;2.20;;;;;;;29.96;19.54;99748.91;5116288;28;20031;-50
2022/05/04 11:13:43;;;;;;;3.90;2.28;;;;;;;30.12;20.19;99740.91;5116385;28;20019;-49
2022/05/04 11:16:09;;;;;;;2.30;2.10;;;;;;;30.39;19.36;99736.84;5116370;28;20072;-49
2022/05/04 11:18:36;;;;;;;4.05;2.60;;;;;;;30.53;19.46;99730.25;5116606;28;20420;-49
2022/05/04 11:21:05;;;;;;;3.03;2.20;;;;;;;30.31;20.03;99723.13;5116642;28;20506;-50
2022/05/04 11:23:31;;;;;;;4.32;2.40;;;;;;;30.51;19.46;99722.34;5116083;28;20047;-47
2022/05/04 11:25:56;;;;;;;7.97;2.20;;;;;;;30.08;19.19;99731.72;5116376;28;20074;-48
2022/05/04 11:28:25;;;;;;;3.97;2.20;;;;;;;29.95;19.63;99724.56;5115567;28;20574;-48
2022/05/04 11:30:55;;;;;;;2.70;2.00;;;;;;;30.45;19.75;99720.16;5112639;28;20424;-49
2022/05/04 11:33:20;;;;;;;3.28;2.30;;;;;;;29.85;19.72;99717.53;5113138;28;20123;-48
2022/05/04 11:35:57;;;;;;;4.85;2.45;;;;;;;29.84;20.16;99715.94;5113033;28;20126;-47
2022/05/04 11:38:23;;;;;;;2.90;2.05;;;;;;;30.54;19.98;99709.88;5112937;28;20483;-49
2022/05/04 11:40:50;;;;;;;3.47;1.95;;;;;;;30.80;18.80;99706.84;5113100;28;20027;-51
2022/05/04 11:43:27;;;;;;;5.07;2.30;;;;;;;31.38;18.92;99707.63;5113196;28;20033;-49
2022/05/04 11:45:53;;;;;;;4.93;2.40;;;;;;;31.18;18.84;99708.53;5113643;28;20031;-50
2022/05/04 11:48:18;;;;;;;4.00;2.00;;;;;;;30.67;20.47;99700.53;5113771;28;20031;-49
2022/05/04 11:50:45;;;;;;;2.47;2.20;;;;;;;31.14;19.35;99704.88;5113559;28;20093;-50
2022/05/04 11:53:11;;;;;;;4.03;2.20;;;;;;;30.50;19.04;99692.47;5112722;28;20099;-53
2022/05/04 11:55:36;;;;;;;6.28;2.40;;;;;;;29.04;20.04;99701.00;5113562;28;20016;-51
2022/05/04 11:58:10;;;;;;;3.67;2.10;;;;;;;27.72;20.72;99684.19;5112696;28;20023;-52
2022/05/04 12:00:37;;;;;;;2.70;1.98;;;;;;;28.21;20.84;99690.34;5112747;28;20028;-49